Time;durP1;ratioP1;P1;durP2;ratioP2;P2;SDS_P1;SDS_P2;PMS_P1;PMS_P2;Temp;Humidity;BMP_temperature;BMP_pressure;BME280_temperature;BME280_humidity;BME280_pressure;Samples;Min_cycle;Max_cycle;Signal;HPM_P1;HPM_P2
2021/01/01 00:00:09;;;;;;;10.35;7.60;;;6.50;96.70;;;;;;5077488;28;20097;-72
2021/01/01 00:02:37;;;;;;;9.88;6.60;;;6.50;96.70;;;;;;5071531;28;20131;-72
2021/01/01 00:05:07;;;;;;;5.95;4.40;;;6.50;96.70;;;;;;5075228;28;20048;-72
2021/01/01 00:07:35;;;;;;;5.47;3.78;;;6.50;96.70;;;;;;5076709;28;20534;-73
2021/01/01 00:10:05;;;;;;;5.72;3.42;;;6.50;96.70;;;;;;5073419;28;20064;-74
2021/01/01 00:12:33;;;;;;;4.82;3.60;;;6.50;96.70;;;;;;5080601;28;20583;-73
2021/01/01 00:15:00;;;;;;;4.25;3.35;;;6.50;96.70;;;;;;5068280;28;20032;-73
2021/01/01 00:17:30;;;;;;;4.85;3.38;;;6.60;96.70;;;;;;5077475;28;20040;-73
2021/01/01 00:19:58;;;;;;;3.95;2.75;;;6.50;96.70;;;;;;5085421;28;20574;-73
2021/01/01 00:22:25;;;;;;;3.88;2.67;;;6.50;96.70;;;;;;5078080;28;20067;-71
2021/01/01 00:24:52;;;;;;;3.60;2.55;;;6.50;96.70;;;;;;5076867;28;20040;-72
2021/01/01 00:27:21;;;;;;;4.10;2.67;;;6.50;96.70;;;;;;5074331;28;20036;-72
2021/01/01 00:29:48;;;;;;;3.25;2.22;;;6.50;96.70;;;;;;5072152;28;20044;-73
2021/01/01 00:32:15;;;;;;;6.00;3.33;;;6.50;96.70;;;;;;5074352;28;20413;-74
2021/01/01 00:34:42;;;;;;;5.43;3.05;;;6.50;96.70;;;;;;5073342;28;20173;-73
2021/01/01 00:37:10;;;;;;;4.10;2.90;;;6.50;96.70;;;;;;5083121;28;20036;-74
2021/01/01 00:39:37;;;;;;;4.65;3.13;;;6.50;96.70;;;;;;5080596;28;20062;-74
2021/01/01 00:42:05;;;;;;;4.43;3.00;;;6.40;96.70;;;;;;5089799;28;20043;-73
2021/01/01 00:44:33;;;;;;;4.18;2.92;;;6.40;96.70;;;;;;5081387;28;20051;-72
2021/01/01 00:47:01;;;;;;;4.43;2.97;;;6.40;96.70;;;;;;5082817;28;20042;-73
2021/01/01 00:49:28;;;;;;;4.90;3.20;;;6.40;96.70;;;;;;5080371;28;20091;-72
2021/01/01 00:51:55;;;;;;;4.20;3.30;;;6.40;96.70;;;;;;5077143;28;20070;-73
2021/01/01 00:54:23;;;;;;;4.65;3.10;;;6.40;96.70;;;;;;5077323;28;20071;-72
2021/01/01 00:56:50;;;;;;;4.50;3.05;;;6.40;96.70;;;;;;5077263;28;20134;-73
2021/01/01 00:59:17;;;;;;;4.93;3.67;;;6.40;96.70;;;;;;5080005;28;20047;-72
2021/01/01 01:01:45;;;;;;;5.85;3.88;;;6.40;96.70;;;;;;5081240;28;20129;-73
2021/01/01 01:04:12;;;;;;;4.88;3.40;;;6.40;96.70;;;;;;5080889;28;20661;-73
2021/01/01 01:06:39;;;;;;;5.20;4.20;;;6.40;96.70;;;;;;5086906;28;20036;-73
2021/01/01 01:09:07;;;;;;;4.93;3.90;;;6.40;96.70;;;;;;5080321;28;20055;-74
2021/01/01 01:11:34;;;;;;;6.30;4.28;;;6.40;96.70;;;;;;5077911;28;20044;-73
2021/01/01 01:14:02;;;;;;;5.72;3.78;;;6.50;96.70;;;;;;5081666;28;20093;-72
2021/01/01 01:16:31;;;;;;;4.90;3.95;;;6.40;96.70;;;;;;5084589;28;20058;-73
2021/01/01 01:19:00;;;;;;;8.73;6.65;;;6.40;96.70;;;;;;5079459;28;20040;-73
2021/01/01 01:21:28;;;;;;;6.00;4.07;;;6.40;96.70;;;;;;5077068;28;20477;-72
2021/01/01 01:23:56;;;;;;;4.35;3.40;;;6.40;96.70;;;;;;5077221;28;20511;-72
2021/01/01 01:26:23;;;;;;;4.32;2.92;;;6.40;96.70;;;;;;5086486;28;20089;-72
2021/01/01 01:28:51;;;;;;;5.10;3.60;;;6.40;96.70;;;;;;5078305;28;20040;-75
2021/01/01 01:31:19;;;;;;;5.05;3.53;;;6.40;96.70;;;;;;5062524;28;20127;-75
2021/01/01 01:33:46;;;;;;;11.00;6.47;;;6.40;96.70;;;;;;5076751;28;20052;-75
2021/01/01 01:36:14;;;;;;;8.48;5.63;;;6.40;96.70;;;;;;5080099;28;20036;-75
2021/01/01 01:38:42;;;;;;;8.05;6.32;;;6.40;96.70;;;;;;5073440;28;20137;-75
2021/01/01 01:41:09;;;;;;;10.13;6.85;;;6.50;96.70;;;;;;5084633;28;20132;-75
2021/01/01 01:43:36;;;;;;;8.40;6.43;;;6.50;96.70;;;;;;5083962;28;20058;-76
2021/01/01 01:46:03;;;;;;;9.85;7.10;;;6.50;96.70;;;;;;5084545;28;20047;-75
2021/01/01 01:48:34;;;;;;;9.30;6.72;;;6.50;96.70;;;;;;5088202;28;20044;-75
2021/01/01 01:51:06;;;;;;;10.60;6.43;;;6.50;96.70;;;;;;5077868;28;20127;-75
2021/01/01 01:53:40;;;;;;;10.55;6.47;;;6.50;96.70;;;;;;5082145;28;20082;-76
2021/01/01 01:56:07;;;;;;;10.73;7.03;;;6.50;96.70;;;;;;5090570;28;20097;-75
2021/01/01 01:58:36;;;;;;;10.88;7.00;;;6.50;96.70;;;;;;5070377;28;20444;-75
2021/01/01 02:01:04;;;;;;;10.38;7.18;;;6.50;96.70;;;;;;5074276;28;20047;-74
2021/01/01 02:03:33;;;;;;;10.13;6.82;;;6.50;96.70;;;;;;5076830;28;20052;-75
2021/01/01 02:06:01;;;;;;;8.27;6.68;;;6.50;96.70;;;;;;5078626;28;20101;-75
2021/01/01 02:08:28;;;;;;;9.82;7.25;;;6.50;96.70;;;;;;5085059;28;20048;-75
2021/01/01 02:10:58;;;;;;;8.43;6.72;;;6.50;96.70;;;;;;5077945;28;20097;-75
2021/01/01 02:13:26;;;;;;;10.90;6.95;;;6.60;96.70;;;;;;5060587;28;20547;-75
2021/01/01 02:15:54;;;;;;;9.50;6.97;;;6.50;96.70;;;;;;5091554;28;20400;-75
2021/01/01 02:18:35;;;;;;;7.75;6.10;;;6.50;96.70;;;;;;5082971;28;20505;-75
2021/01/01 02:21:03;;;;;;;9.68;6.32;;;6.50;96.70;;;;;;5083146;28;20109;-75
2021/01/01 02:23:32;;;;;;;10.27;6.80;;;6.50;96.70;;;;;;5093596;28;20042;-75
2021/01/01 02:26:00;;;;;;;9.75;6.75;;;6.50;96.70;;;;;;5085895;28;20056;-75
2021/01/01 02:28:27;;;;;;;9.70;7.43;;;6.50;96.70;;;;;;5067723;28;20344;-75
2021/01/01 02:30:54;;;;;;;10.82;7.50;;;6.50;96.70;;;;;;5081115;28;20146;-75
2021/01/01 02:33:22;;;;;;;10.80;6.40;;;6.50;96.70;;;;;;5084994;28;20055;-72
2021/01/01 02:35:49;;;;;;;11.38;7.30;;;6.50;96.70;;;;;;5085286;28;20126;-72
2021/01/01 02:38:16;;;;;;;9.65;7.25;;;6.50;96.70;;;;;;5083943;28;20040;-72
2021/01/01 02:40:44;;;;;;;10.27;6.85;;;6.60;96.70;;;;;;5082638;28;20071;-72
2021/01/01 02:43:11;;;;;;;8.23;6.47;;;6.60;96.70;;;;;;5085241;28;20036;-72
2021/01/01 02:45:39;;;;;;;9.23;5.95;;;6.60;96.70;;;;;;5085223;28;20598;-73
2021/01/01 02:48:12;;;;;;;10.02;6.78;;;6.60;96.70;;;;;;5087897;28;20146;-73
2021/01/01 02:50:40;;;;;;;8.40;6.95;;;6.60;96.70;;;;;;5082240;28;20040;-73
2021/01/01 02:53:07;;;;;;;9.32;6.35;;;6.60;96.70;;;;;;5086880;28;20043;-72
2021/01/01 02:55:35;;;;;;;9.15;7.07;;;6.60;96.70;;;;;;5079027;28;20043;-72
2021/01/01 02:58:04;;;;;;;10.82;7.15;;;6.60;96.70;;;;;;5084051;28;20040;-73
2021/01/01 03:00:33;;;;;;;10.35;6.75;;;6.70;96.70;;;;;;5076673;28;20035;-73
2021/01/01 03:03:00;;;;;;;9.57;7.07;;;6.70;96.70;;;;;;5079509;28;20096;-72
2021/01/01 03:05:28;;;;;;;10.00;7.05;;;6.70;96.70;;;;;;5082345;28;20043;-73
2021/01/01 03:07:55;;;;;;;9.55;6.65;;;6.70;96.70;;;;;;5088134;28;20039;-73
2021/01/01 03:10:22;;;;;;;8.60;6.30;;;6.70;96.70;;;;;;5085838;28;20071;-72
2021/01/01 03:12:50;;;;;;;7.22;6.03;;;6.70;96.70;;;;;;5088398;28;20040;-72
2021/01/01 03:15:18;;;;;;;10.93;6.82;;;6.70;96.70;;;;;;5086241;28;20044;-73
2021/01/01 03:17:45;;;;;;;9.48;6.85;;;6.80;96.70;;;;;;5086749;28;20137;-73
2021/01/01 03:20:13;;;;;;;9.85;7.05;;;6.80;96.70;;;;;;5078528;28;20576;-73
2021/01/01 03:22:41;;;;;;;11.50;7.53;;;6.80;96.70;;;;;;5084189;28;20046;-73
2021/01/01 03:25:09;;;;;;;10.43;6.88;;;6.80;96.70;;;;;;5080786;28;20396;-73
2021/01/01 03:27:36;;;;;;;8.73;6.95;;;6.70;96.70;;;;;;5082444;28;20415;-73
2021/01/01 03:30:05;;;;;;;9.90;6.75;;;6.70;96.70;;;;;;5088435;28;20556;-73
2021/01/01 03:32:33;;;;;;;8.55;6.45;;;6.70;96.70;;;;;;5084581;28;20055;-72
2021/01/01 03:35:01;;;;;;;8.88;6.60;;;6.70;96.70;;;;;;5082697;28;20076;-73
2021/01/01 03:37:32;;;;;;;8.13;6.47;;;6.70;96.70;;;;;;5082343;28;20040;-72
2021/01/01 03:40:01;;;;;;;6.93;5.68;;;6.70;96.70;;;;;;5079162;28;20032;-72
2021/01/01 03:42:28;;;;;;;7.80;6.07;;;6.70;96.70;;;;;;5063985;28;20582;-72
2021/01/01 03:44:55;;;;;;;8.35;6.05;;;6.70;96.70;;;;;;5086871;28;20043;-72
2021/01/01 03:47:23;;;;;;;8.05;5.97;;;6.60;96.70;;;;;;5087589;28;20503;-73
2021/01/01 03:49:51;;;;;;;6.72;4.97;;;6.70;96.70;;;;;;5086087;28;20572;-72
2021/01/01 03:52:18;;;;;;;6.82;5.07;;;6.70;96.70;;;;;;5085432;28;20440;-73
2021/01/01 03:54:45;;;;;;;7.88;5.00;;;6.70;96.70;;;;;;5087735;28;20062;-73
2021/01/01 03:57:14;;;;;;;6.70;4.47;;;6.70;96.70;;;;;;5091274;28;20035;-72
2021/01/01 03:59:41;;;;;;;7.90;5.20;;;6.70;96.70;;;;;;5084199;28;20032;-73
2021/01/01 04:02:08;;;;;;;7.68;4.72;;;6.70;96.70;;;;;;5080278;28;20044;-73
2021/01/01 04:04:35;;;;;;;6.28;4.60;;;6.80;96.70;;;;;;5086729;28;20044;-72
2021/01/01 04:07:03;;;;;;;6.90;4.78;;;6.80;96.70;;;;;;5083169;28;20040;-72
2021/01/01 04:09:31;;;;;;;6.45;4.68;;;6.80;96.70;;;;;;5080662;28;20036;-73
2021/01/01 04:11:58;;;;;;;6.50;4.90;;;6.80;96.70;;;;;;5071332;28;20040;-72
2021/01/01 04:14:25;;;;;;;6.65;4.90;;;6.80;96.70;;;;;;5089153;27;20126;-72
2021/01/01 04:16:52;;;;;;;8.20;5.40;;;6.80;96.70;;;;;;5081907;28;20144;-72
2021/01/01 04:19:20;;;;;;;7.50;4.75;;;6.80;96.70;;;;;;5095657;28;20042;-73
2021/01/01 04:21:47;;;;;;;7.63;5.25;;;6.80;96.70;;;;;;5074114;28;20040;-72
2021/01/01 04:24:16;;;;;;;7.80;5.50;;;6.80;96.70;;;;;;5076942;28;20184;-72
2021/01/01 04:26:43;;;;;;;7.40;5.80;;;6.80;96.70;;;;;;5066388;28;20040;-72
2021/01/01 04:29:10;;;;;;;8.38;5.22;;;6.70;96.70;;;;;;5079798;28;20063;-72
2021/01/01 04:31:38;;;;;;;9.82;6.57;;;6.70;96.70;;;;;;5073363;28;20045;-72
2021/01/01 04:34:06;;;;;;;9.43;6.40;;;6.70;96.70;;;;;;5078193;28;20520;-73
2021/01/01 04:36:34;;;;;;;9.25;5.93;;;6.70;96.70;;;;;;5078346;28;20044;-73
2021/01/01 04:39:01;;;;;;;8.85;5.95;;;6.70;96.70;;;;;;5078981;28;20032;-72
2021/01/01 04:41:31;;;;;;;10.35;6.70;;;6.70;96.70;;;;;;5079789;28;20040;-73
2021/01/01 04:43:58;;;;;;;9.23;6.45;;;6.70;96.70;;;;;;5081047;28;20044;-72
2021/01/01 04:46:26;;;;;;;9.43;6.88;;;6.70;96.70;;;;;;5087104;28;20048;-72
2021/01/01 04:48:54;;;;;;;9.80;7.22;;;6.70;96.70;;;;;;5060904;28;20500;-72
2021/01/01 04:51:21;;;;;;;11.93;7.95;;;6.70;96.70;;;;;;5080772;28;20062;-72
2021/01/01 04:53:52;;;;;;;11.27;7.15;;;6.70;96.70;;;;;;5079189;28;20048;-73
2021/01/01 04:56:19;;;;;;;10.27;7.60;;;6.70;96.70;;;;;;5083499;28;20242;-72
2021/01/01 04:58:48;;;;;;;11.88;7.75;;;6.70;96.70;;;;;;5057857;28;20500;-72
2021/01/01 05:01:16;;;;;;;11.98;7.90;;;6.70;96.70;;;;;;5084324;28;20548;-71
2021/01/01 05:03:44;;;;;;;13.30;7.85;;;6.70;96.70;;;;;;5085597;28;20379;-73
2021/01/01 05:06:11;;;;;;;10.85;7.75;;;6.70;96.70;;;;;;5077543;28;20063;-73
2021/01/01 05:08:38;;;;;;;10.65;7.93;;;6.60;96.70;;;;;;5079599;28;20104;-73
2021/01/01 05:11:07;;;;;;;12.88;8.02;;;6.60;96.70;;;;;;5076338;28;20717;-73
2021/01/01 05:13:34;;;;;;;12.07;7.85;;;6.60;96.70;;;;;;5079145;28;20048;-73
2021/01/01 05:16:04;;;;;;;11.05;7.65;;;6.60;96.70;;;;;;5079897;28;20050;-73
2021/01/01 05:18:31;;;;;;;12.68;8.23;;;6.60;96.70;;;;;;5080758;28;20040;-73
2021/01/01 05:20:59;;;;;;;13.48;8.60;;;6.70;96.70;;;;;;5071809;28;20041;-73
2021/01/01 05:23:28;;;;;;;12.32;8.40;;;6.70;96.70;;;;;;5078833;28;20048;-73
2021/01/01 05:26:10;;;;;;;13.88;9.10;;;6.70;96.70;;;;;;5076806;28;20036;-73
2021/01/01 05:28:53;;;;;;;11.80;8.07;;;6.70;96.70;;;;;;5077703;28;20508;-73
2021/01/01 05:31:22;;;;;;;12.73;8.63;;;6.70;96.70;;;;;;5071160;28;20044;-73
2021/01/01 05:33:53;;;;;;;12.15;8.43;;;6.60;96.70;;;;;;5076832;28;20413;-72
2021/01/01 05:36:36;;;;;;;14.30;8.68;;;6.70;96.70;;;;;;5079744;28;20515;-73
2021/01/01 05:39:06;;;;;;;12.43;8.60;;;6.70;96.70;;;;;;5077804;28;20051;-72
2021/01/01 05:41:36;;;;;;;13.52;8.70;;;6.60;96.70;;;;;;5076000;28;20047;-72
2021/01/01 05:44:09;;;;;;;13.27;8.40;;;6.70;96.70;;;;;;5075691;28;20040;-71
2021/01/01 05:46:37;;;;;;;14.48;9.70;;;6.70;96.70;;;;;;5077691;28;20043;-72
2021/01/01 05:49:05;;;;;;;11.30;8.10;;;6.70;96.70;;;;;;5081634;28;20024;-73
2021/01/01 05:51:32;;;;;;;13.13;8.70;;;6.70;96.70;;;;;;5082143;28;20055;-72
2021/01/01 05:54:14;;;;;;;12.57;8.25;;;6.70;96.70;;;;;;5086429;28;20040;-72
2021/01/01 05:56:41;;;;;;;13.60;9.00;;;6.70;96.70;;;;;;5080846;28;20048;-73
2021/01/01 05:59:11;;;;;;;12.88;8.05;;;6.70;96.70;;;;;;5083830;28;20558;-72
2021/01/01 06:01:41;;;;;;;11.35;7.75;;;6.70;96.70;;;;;;5083453;28;20040;-73
2021/01/01 06:04:09;;;;;;;11.38;7.85;;;6.80;96.70;;;;;;5082348;28;20042;-73
2021/01/01 06:06:37;;;;;;;10.38;7.55;;;6.70;96.70;;;;;;5085606;28;20057;-72
2021/01/01 06:09:06;;;;;;;11.63;7.40;;;6.80;96.70;;;;;;5078456;28;20524;-73
2021/01/01 06:11:36;;;;;;;10.88;7.25;;;6.80;96.70;;;;;;5081444;28;20651;-73
2021/01/01 06:14:05;;;;;;;10.65;7.65;;;6.80;96.70;;;;;;5077108;28;20497;-73
2021/01/01 06:16:45;;;;;;;11.60;7.38;;;6.80;96.70;;;;;;5079832;28;20532;-73
2021/01/01 06:19:13;;;;;;;11.32;7.05;;;6.80;96.70;;;;;;5080838;28;20062;-73
2021/01/01 06:21:43;;;;;;;11.48;7.00;;;6.80;96.70;;;;;;5072688;28;20036;-73
2021/01/01 06:24:18;;;;;;;12.27;7.78;;;6.80;96.70;;;;;;5076145;28;20397;-74
2021/01/01 06:26:46;;;;;;;11.38;7.65;;;6.80;96.70;;;;;;5080336;28;20094;-73
2021/01/01 06:29:17;;;;;;;9.88;6.63;;;6.80;96.70;;;;;;5088695;28;20583;-73
2021/01/01 06:31:46;;;;;;;12.75;7.22;;;6.80;96.70;;;;;;5078610;28;20036;-74
2021/01/01 06:34:28;;;;;;;12.25;7.00;;;6.80;96.70;;;;;;5079484;28;20048;-73
2021/01/01 06:36:56;;;;;;;11.88;7.65;;;6.80;96.70;;;;;;5077016;28;20123;-73
2021/01/01 06:39:39;;;;;;;11.07;7.20;;;6.80;96.70;;;;;;5089690;28;20048;-73
2021/01/01 06:42:07;;;;;;;12.27;7.63;;;6.80;96.70;;;;;;5080534;28;20113;-73
2021/01/01 06:44:37;;;;;;;10.48;6.65;;;6.80;96.70;;;;;;5081927;28;20032;-73
2021/01/01 06:47:08;;;;;;;11.77;7.50;;;6.80;96.70;;;;;;5080565;28;20062;-72
2021/01/01 06:49:37;;;;;;;10.27;7.25;;;6.70;96.70;;;;;;5072889;28;20616;-72
2021/01/01 06:52:13;;;;;;;8.93;6.80;;;6.70;96.70;;;;;;5078163;28;20032;-73
2021/01/01 06:54:56;;;;;;;12.35;7.50;;;6.70;96.70;;;;;;5081156;28;20118;-72
2021/01/01 06:57:25;;;;;;;10.43;6.82;;;6.70;96.70;;;;;;5079694;28;20048;-72
2021/01/01 06:59:53;;;;;;;9.30;6.28;;;6.70;96.70;;;;;;5081356;28;20032;-73
2021/01/01 07:02:25;;;;;;;10.85;6.70;;;6.80;96.70;;;;;;5082178;28;20032;-73
2021/01/01 07:04:54;;;;;;;11.38;6.65;;;6.80;96.70;;;;;;5079826;28;20044;-72
2021/01/01 07:07:37;;;;;;;9.43;6.43;;;6.80;96.70;;;;;;5088255;28;20048;-73
2021/01/01 07:10:06;;;;;;;10.68;6.30;;;6.80;96.70;;;;;;5080832;28;20076;-72
2021/01/01 07:12:37;;;;;;;9.32;6.22;;;6.80;96.70;;;;;;5081489;28;20109;-72
2021/01/01 07:15:31;;;;;;;9.55;6.35;;;6.80;96.70;;;;;;5076300;28;20043;-72
2021/01/01 07:17:59;;;;;;;9.88;6.47;;;6.80;96.70;;;;;;5077264;28;20649;-72
2021/01/01 07:20:28;;;;;;;8.80;6.35;;;6.90;96.70;;;;;;5062560;28;20478;-72
2021/01/01 07:22:58;;;;;;;9.40;6.20;;;6.90;96.70;;;;;;5082853;28;20058;-72
2021/01/01 07:25:34;;;;;;;9.00;5.72;;;6.90;96.70;;;;;;5083353;28;20055;-72
2021/01/01 07:28:05;;;;;;;9.95;5.32;;;6.90;96.70;;;;;;5076281;28;20309;-73
2021/01/01 07:30:33;;;;;;;9.90;6.07;;;6.90;96.70;;;;;;5077742;28;20059;-72
2021/01/01 07:33:02;;;;;;;8.70;5.65;;;6.90;96.70;;;;;;5076610;28;20143;-72
2021/01/01 07:35:31;;;;;;;7.60;5.18;;;6.90;96.70;;;;;;5078417;28;20055;-72
2021/01/01 07:37:59;;;;;;;8.07;5.28;;;7.00;96.70;;;;;;5082827;28;20044;-72
2021/01/01 07:40:26;;;;;;;8.48;5.22;;;7.00;96.70;;;;;;5077466;28;20419;-72
2021/01/01 07:42:54;;;;;;;8.35;5.80;;;7.00;96.70;;;;;;5079940;28;20405;-73
2021/01/01 07:45:21;;;;;;;7.65;5.30;;;7.00;96.70;;;;;;5079700;28;20044;-72
2021/01/01 07:47:49;;;;;;;8.15;5.40;;;7.10;96.70;;;;;;5063970;28;20047;-72
2021/01/01 07:50:18;;;;;;;7.97;4.90;;;7.10;96.70;;;;;;5079801;28;20036;-72
2021/01/01 07:52:45;;;;;;;7.13;4.53;;;7.10;96.70;;;;;;5078793;28;20044;-73
2021/01/01 07:55:21;;;;;;;6.75;4.32;;;7.10;96.70;;;;;;5079429;28;20119;-72
2021/01/01 07:57:50;;;;;;;7.93;4.93;;;7.20;96.70;;;;;;5067908;28;20043;-73
2021/01/01 08:00:18;;;;;;;6.22;3.92;;;7.20;96.70;;;;;;5074737;28;20040;-72
2021/01/01 08:02:47;;;;;;;8.63;4.95;;;7.30;96.70;;;;;;5082865;28;20048;-72
2021/01/01 08:05:15;;;;;;;6.50;3.95;;;7.30;96.70;;;;;;5076122;28;20135;-72
2021/01/01 08:07:43;;;;;;;4.60;3.55;;;7.30;96.70;;;;;;5078183;28;20515;-72
2021/01/01 08:10:11;;;;;;;5.80;3.63;;;7.30;96.70;;;;;;5076663;28;20682;-72
2021/01/01 08:12:38;;;;;;;5.93;3.65;;;7.30;96.70;;;;;;5080524;28;20046;-73
2021/01/01 08:15:06;;;;;;;5.68;3.92;;;7.40;96.70;;;;;;5083781;28;20071;-72
2021/01/01 08:17:33;;;;;;;6.53;3.80;;;7.40;96.70;;;;;;5079749;28;20055;-72
2021/01/01 08:20:14;;;;;;;6.93;3.67;;;7.40;96.70;;;;;;5078047;28;20036;-72
2021/01/01 08:22:46;;;;;;;5.85;3.75;;;7.40;96.70;;;;;;5078575;28;20533;-73
2021/01/01 08:25:14;;;;;;;8.05;4.72;;;7.40;96.70;;;;;;5061476;28;20048;-73
2021/01/01 08:27:41;;;;;;;8.88;4.60;;;7.40;96.70;;;;;;5076109;28;20032;-73
2021/01/01 08:30:10;;;;;;;11.38;5.15;;;7.40;96.70;;;;;;5080545;28;20039;-73
2021/01/01 08:32:39;;;;;;;7.68;4.47;;;7.50;96.70;;;;;;5076587;28;20044;-73
2021/01/01 08:35:10;;;;;;;7.45;5.03;;;7.50;96.70;;;;;;5074139;28;20044;-73
2021/01/01 08:37:37;;;;;;;6.63;5.57;;;7.50;96.70;;;;;;5077838;28;20098;-73
2021/01/01 08:40:07;;;;;;;9.05;6.97;;;7.50;96.70;;;;;;5080247;28;20694;-72
2021/01/01 08:42:36;;;;;;;7.25;5.18;;;7.50;96.70;;;;;;5073029;28;20067;-72
2021/01/01 08:45:04;;;;;;;5.53;3.65;;;7.50;96.70;;;;;;5063618;28;20413;-73
2021/01/01 08:47:40;;;;;;;6.03;3.83;;;7.40;96.70;;;;;;5064306;28;20135;-73
2021/01/01 08:50:20;;;;;;;6.20;4.00;;;7.40;96.70;;;;;;5078649;28;20658;-73
2021/01/01 08:52:48;;;;;;;5.53;4.10;;;7.40;96.70;;;;;;5073081;28;20060;-72
2021/01/01 08:55:17;;;;;;;8.85;4.35;;;7.40;96.70;;;;;;5080176;28;20498;-72
2021/01/01 08:57:44;;;;;;;7.40;4.45;;;7.40;96.70;;;;;;5075547;28;20040;-72
2021/01/01 09:00:12;;;;;;;6.53;4.60;;;7.40;96.70;;;;;;5079083;28;20509;-73
2021/01/01 09:02:41;;;;;;;5.45;4.00;;;7.50;96.70;;;;;;5074691;28;20502;-72
2021/01/01 09:05:12;;;;;;;6.22;3.97;;;7.50;96.70;;;;;;5086278;28;20490;-72
2021/01/01 09:07:39;;;;;;;6.50;4.32;;;7.50;96.70;;;;;;5081018;28;20109;-73
2021/01/01 09:10:18;;;;;;;7.65;4.90;;;7.60;96.70;;;;;;5061935;28;20633;-73
2021/01/01 09:12:46;;;;;;;7.95;5.50;;;7.60;96.70;;;;;;5075582;28;20052;-72
2021/01/01 09:15:27;;;;;;;6.93;4.20;;;7.70;96.70;;;;;;5076204;28;20444;-73
2021/01/01 09:18:10;;;;;;;8.27;5.85;;;7.80;96.70;;;;;;5078854;28;20040;-72
2021/01/01 09:20:46;;;;;;;8.15;5.63;;;7.80;96.70;;;;;;5063815;28;20044;-73
2021/01/01 09:23:13;;;;;;;7.90;4.93;;;7.90;96.70;;;;;;5078135;28;20050;-73
2021/01/01 09:25:42;;;;;;;7.70;4.30;;;7.90;96.70;;;;;;5075425;28;20124;-73
2021/01/01 09:28:12;;;;;;;6.90;4.43;;;7.90;96.70;;;;;;5073801;28;20044;-73
2021/01/01 09:30:39;;;;;;;6.97;4.53;;;7.80;96.70;;;;;;5057893;28;20036;-74
2021/01/01 09:33:08;;;;;;;7.32;4.53;;;7.80;96.70;;;;;;5077869;28;20129;-75
2021/01/01 09:35:35;;;;;;;8.07;4.72;;;7.80;96.70;;;;;;5070497;28;20521;-74
2021/01/01 09:38:04;;;;;;;9.40;4.90;;;7.80;96.70;;;;;;5073025;28;20067;-74
2021/01/01 09:40:34;;;;;;;9.93;5.13;;;7.80;96.70;;;;;;5076762;28;20040;-74
2021/01/01 09:43:04;;;;;;;8.75;4.70;;;7.80;96.70;;;;;;5079231;28;20127;-75
2021/01/01 09:45:32;;;;;;;8.25;4.35;;;7.80;96.70;;;;;;5071236;28;20106;-74
2021/01/01 09:48:00;;;;;;;7.78;5.07;;;7.80;96.70;;;;;;5070288;28;20497;-74
2021/01/01 09:50:28;;;;;;;7.53;4.07;;;7.70;96.70;;;;;;5078430;28;20440;-74
2021/01/01 09:52:56;;;;;;;8.10;4.88;;;7.70;96.70;;;;;;5080429;28;20054;-74
2021/01/01 09:55:24;;;;;;;7.80;4.40;;;7.70;96.70;;;;;;5071959;28;20623;-73
2021/01/01 09:57:52;;;;;;;7.10;4.10;;;7.70;96.70;;;;;;5076128;28;20044;-73
2021/01/01 10:00:21;;;;;;;8.88;4.53;;;7.70;96.70;;;;;;5072951;28;20048;-74
2021/01/01 10:02:48;;;;;;;9.80;6.40;;;7.70;96.70;;;;;;5069909;28;20536;-72
2021/01/01 10:05:15;;;;;;;12.02;6.68;;;7.70;96.70;;;;;;5070288;28;20503;-73
2021/01/01 10:07:43;;;;;;;10.75;6.95;;;7.70;96.70;;;;;;5074510;28;20048;-74
2021/01/01 10:10:11;;;;;;;11.43;6.57;;;7.70;96.70;;;;;;5070645;28;20036;-75
2021/01/01 10:12:38;;;;;;;6.88;4.90;;;7.70;96.70;;;;;;5073418;28;20389;-74
2021/01/01 10:15:08;;;;;;;7.70;4.82;;;7.70;96.70;;;;;;5071203;28;20040;-75
2021/01/01 10:17:36;;;;;;;7.47;5.10;;;7.70;96.70;;;;;;5077231;28;20127;-76
2021/01/01 10:20:05;;;;;;;8.75;7.10;;;7.70;96.70;;;;;;5072968;28;20050;-74
2021/01/01 10:22:32;;;;;;;10.30;6.25;;;7.70;96.70;;;;;;5076496;28;20234;-75
2021/01/01 10:25:03;;;;;;;7.43;5.70;;;7.80;96.70;;;;;;5071331;28;20333;-76
2021/01/01 10:27:30;;;;;;;10.07;5.40;;;7.80;96.70;;;;;;5070292;28;20141;-72
2021/01/01 10:29:57;;;;;;;7.93;5.10;;;7.80;96.70;;;;;;5073828;28;20267;-73
2021/01/01 10:32:25;;;;;;;7.43;4.35;;;7.70;96.70;;;;;;5076472;28;20036;-73
2021/01/01 10:34:53;;;;;;;10.18;5.10;;;7.70;96.70;;;;;;5079047;28;20044;-73
2021/01/01 10:37:20;;;;;;;7.45;5.05;;;7.70;96.70;;;;;;5073558;28;20451;-72
2021/01/01 10:39:48;;;;;;;7.40;4.65;;;7.70;96.70;;;;;;5067883;28;20040;-73
2021/01/01 10:42:15;;;;;;;6.97;4.53;;;7.70;96.70;;;;;;5078105;28;20040;-74
2021/01/01 10:44:42;;;;;;;7.85;4.93;;;7.60;96.70;;;;;;5075214;28;20180;-72
2021/01/01 10:47:10;;;;;;;8.57;5.50;;;7.60;96.70;;;;;;5080109;28;20088;-72
2021/01/01 10:49:37;;;;;;;8.52;5.63;;;7.70;96.70;;;;;;5080166;28;20718;-71
2021/01/01 10:52:06;;;;;;;8.38;5.47;;;7.70;96.70;;;;;;5081046;28;20466;-72
2021/01/01 10:54:34;;;;;;;10.10;6.10;;;7.70;96.70;;;;;;5079464;28;20051;-72
2021/01/01 10:57:01;;;;;;;9.23;5.75;;;7.70;96.70;;;;;;5077377;28;20093;-73
2021/01/01 10:59:29;;;;;;;16.05;10.43;;;7.70;96.70;;;;;;5081597;28;20543;-75
2021/01/01 11:01:57;;;;;;;19.15;11.63;;;7.70;96.70;;;;;;5068068;28;20028;-73
2021/01/01 11:04:24;;;;;;;18.98;11.98;;;7.70;96.70;;;;;;5078636;28;20036;-73
2021/01/01 11:06:51;;;;;;;16.02;9.95;;;7.70;96.70;;;;;;5074733;28;20448;-75
2021/01/01 11:09:20;;;;;;;15.77;9.10;;;7.70;96.70;;;;;;5059087;28;20052;-73
2021/01/01 11:11:48;;;;;;;10.88;7.32;;;7.70;96.70;;;;;;5076987;28;20045;-73
2021/01/01 12:20:40;;;;;;;10.07;5.65;;;9.90;96.70;;;;;;5078175;28;20501;-73
2021/01/01 12:25:36;;;;;;;11.20;7.40;;;10.00;96.70;;;;;;5076828;28;19977;-71
2021/01/01 12:28:08;;;;;;;16.58;11.43;;;9.90;96.70;;;;;;5076546;28;20109;-72
2021/01/01 12:30:36;;;;;;;21.13;16.20;;;9.70;96.70;;;;;;5078264;28;20043;-72
2021/01/01 12:33:04;;;;;;;22.80;15.73;;;9.60;96.70;;;;;;5058912;28;20059;-73
2021/01/01 12:35:31;;;;;;;10.00;7.50;;;9.60;96.70;;;;;;5080255;28;20493;-73
2021/01/01 12:38:00;;;;;;;13.38;6.53;;;9.50;96.70;;;;;;5078335;28;20059;-72
2021/01/01 12:40:29;;;;;;;7.68;6.07;;;9.50;96.70;;;;;;5074621;28;20688;-76
2021/01/01 12:42:59;;;;;;;8.70;5.93;;;9.30;96.70;;;;;;5076017;28;20438;-76
2021/01/01 12:45:28;;;;;;;9.38;6.95;;;9.30;96.70;;;;;;5077940;28;20101;-76
2021/01/01 12:47:56;;;;;;;9.80;6.68;;;9.20;96.70;;;;;;5072079;28;20040;-76
2021/01/01 12:50:25;;;;;;;9.15;6.47;;;9.20;96.70;;;;;;5077611;28;20085;-75
2021/01/01 12:52:53;;;;;;;7.78;5.40;;;9.10;96.70;;;;;;5074470;28;20044;-76
2021/01/01 12:55:21;;;;;;;9.63;6.38;;;9.00;96.70;;;;;;5080910;28;20071;-75
2021/01/01 12:57:48;;;;;;;8.90;5.78;;;9.00;96.70;;;;;;5061083;28;20087;-76
2021/01/01 13:00:17;;;;;;;8.07;4.93;;;9.00;96.70;;;;;;5079592;28;20048;-76
2021/01/01 13:02:46;;;;;;;5.65;3.83;;;8.90;96.70;;;;;;5076893;28;20044;-76
2021/01/01 13:05:13;;;;;;;5.80;4.10;;;8.90;96.70;;;;;;5074946;28;20900;-76
2021/01/01 13:07:42;;;;;;;6.65;4.10;;;8.90;96.70;;;;;;5074257;28;20089;-76
2021/01/01 13:10:10;;;;;;;7.30;4.50;;;8.90;96.70;;;;;;5087010;28;20059;-77
2021/01/01 13:12:39;;;;;;;5.50;3.63;;;8.90;96.70;;;;;;5078777;28;20090;-77
2021/01/01 13:15:07;;;;;;;6.90;4.03;;;8.80;96.70;;;;;;5072265;28;20040;-75
2021/01/01 13:17:35;;;;;;;8.82;4.00;;;8.80;96.70;;;;;;5074487;28;20036;-76
2021/01/01 13:20:04;;;;;;;6.70;3.90;;;8.80;96.70;;;;;;5073493;28;20070;-76
2021/01/01 13:22:31;;;;;;;4.88;2.60;;;8.80;96.70;;;;;;5081712;28;20501;-76
2021/01/01 13:24:58;;;;;;;6.55;3.92;;;8.80;96.70;;;;;;5071969;28;20040;-76
2021/01/01 13:27:26;;;;;;;4.60;3.05;;;8.80;96.70;;;;;;5079608;28;20062;-76
2021/01/01 13:29:54;;;;;;;4.22;3.17;;;8.80;96.70;;;;;;5075819;28;20048;-76
2021/01/01 13:32:22;;;;;;;3.97;2.08;;;8.90;96.70;;;;;;5076012;28;21098;-75
2021/01/01 13:34:49;;;;;;;5.07;2.85;;;8.80;96.70;;;;;;5090420;28;20276;-76
2021/01/01 13:37:18;;;;;;;3.42;2.28;;;8.80;96.70;;;;;;5074437;28;20445;-76
2021/01/01 13:39:45;;;;;;;4.00;2.45;;;8.80;96.70;;;;;;5074637;28;20086;-76
2021/01/01 13:42:15;;;;;;;3.53;2.80;;;8.80;96.70;;;;;;5077524;28;20040;-76
2021/01/01 13:44:43;;;;;;;3.30;2.20;;;8.90;96.70;;;;;;5075571;28;20036;-77
2021/01/01 13:47:10;;;;;;;4.03;2.55;;;8.90;96.70;;;;;;5075897;28;20111;-78
2021/01/01 13:49:38;;;;;;;4.78;3.03;;;9.00;96.70;;;;;;5080470;28;20040;-76
2021/01/01 13:52:05;;;;;;;3.45;2.47;;;9.00;96.70;;;;;;5069900;28;20048;-75
2021/01/01 13:54:33;;;;;;;5.45;4.00;;;9.00;96.70;;;;;;5073478;28;20075;-76
2021/01/01 13:57:01;;;;;;;5.30;3.35;;;9.10;96.70;;;;;;5075436;28;20036;-76
2021/01/01 13:59:29;;;;;;;5.20;3.90;;;9.10;96.70;;;;;;5075193;28;20653;-76
2021/01/01 14:01:56;;;;;;;9.10;5.28;;;9.20;96.70;;;;;;5071670;28;20138;-77
2021/01/01 14:04:24;;;;;;;7.82;4.63;;;9.40;96.70;;;;;;5050736;28;20169;-77
2021/01/01 14:06:52;;;;;;;5.22;3.47;;;9.60;96.70;;;;;;5053277;28;20768;-76
2021/01/01 14:09:19;;;;;;;3.53;2.47;;;9.70;96.70;;;;;;5069412;28;20594;-76